Latest Coastal Weather Observations for Cape Grim

IDV60701

Issued at 7:41 pm EDT Saturday 10 December 2022 (issued every 10 minutes, with the page automatically refreshed every 10 minutes)

About coastal observations | Map of coastal stations | Coastal observations for VIC | Marine services | Other Formats
Station Details ID: 091331 Name: CAPE GRIM Lat: -40.68 Lon: 144.69 Height: 86.0 m
Data from the previous 72 hours. | See also: Recent months at Cape Grim
Date/Time
EDT
Wind Sea
Height
m
Swell Vis
km
Cloud Weather Temp
°C
Press
MSL
hPa
Rain since
9am
mm
Dir  Spd
kts
Gust
kts
Height
m
Period
s
Dir
10/07:30pm NE 17 20 - - - - - Cloudy - 14.3 1013.1 0.0
10/07:00pm ENE 16 20 - - - - - Partly cloudy - 14.6 1012.9 0.0
10/06:30pm ENE 16 19 - - - - - - - 15.3 1012.8 0.0
10/06:00pm ENE 18 21 - - - - - - - 15.6 1012.7 0.0
10/05:30pm ENE 17 21 - - - - - - - 16.1 1013.1 0.0
10/05:00pm ENE 17 21 - - - - - - - 16.2 1013.4 0.0
10/04:30pm NE 17 21 - - - - - - - 16.2 1013.9 0.0
10/04:00pm ENE 16 19 - - - - - - - 16.7 1014.4 0.0
10/03:30pm ENE 14 18 - - - - - - - 17.0 1014.8 0.0
10/03:00pm NNE 13 17 - - - - - - - 17.6 1014.7 0.0
10/02:30pm NNE 11 16 - - - - - - - 17.6 1015.1 0.0
10/02:00pm N 9 14 - - - - - - - 17.7 1015.6 0.0
10/01:30pm NNE 10 12 - - - - - - - 17.0 1015.7 0.0
10/01:00pm N 9 13 - - - - - - - 16.9 1015.7 0.0
10/12:30pm N 10 13 - - - - - - - 17.1 1015.9 0.0
10/12:00pm NNE 9 11 - - - - - Mostly cloudy - 16.0 1016.4 0.0
10/11:30am N 9 13 - - - - - Partly cloudy - 16.3 1016.5 0.0
10/11:00am NNE 9 12 - - - - - - - 15.7 1016.5 0.0
10/10:30am NNE 9 11 - - - - - - - 15.4 1016.7 0.0
10/10:00am NE 10 13 - - - - - - - 15.9 1016.9 0.0
10/09:30am NE 11 13 - - - - - Partly cloudy - 14.7 1017.0 0.0
10/09:00am NE 12 15 - - - - - Cloudy - 14.9 1017.1 0.0
10/08:30am NE 13 15 - - - - - - - 14.8 1016.9 0.0
10/08:00am NE 9 10 - - - - - Partly cloudy - 12.1 1016.7 0.0
10/07:30am ENE 11 11 - - - - - - - 10.2 1016.4 0.0
10/07:00am E 11 13 - - - - - - - 9.4 1016.4 0.0
10/06:30am E 12 13 - - - - - - - 8.7 1016.1 0.0
10/06:00am E 12 13 - - - - - Mostly clear - 8.2 1016.0 0.0
10/05:30am ESE 13 15 - - - - - - - 8.5 1015.9 0.0
10/05:00am SE 9 11 - - - - - - - 8.6 1015.8 0.0
10/04:30am SSE 10 13 - - - - - - - 9.4 1016.0 0.0
10/04:00am SSE 8 10 - - - - - - - 9.8 1016.4 0.0
10/03:30am S 11 15 - - - - - - - 10.5 1016.7 0.0
10/03:00am S 11 15 - - - - - - - 10.6 1016.8 0.0
10/02:30am S 12 16 - - - - - - - 10.8 1017.0 0.0
10/02:00am SSW 12 16 - - - - - - - 10.9 1017.1 0.0
10/01:30am SSW 13 19 - - - - - - - 10.9 1017.3 0.0
10/01:00am SSW 12 15 - - - - - - - 10.9 1017.5 0.0
10/12:30am SSW 12 16 - - - - - - - 10.8 1017.6 0.0
10/12:00am S 13 19 - - - - - Partly cloudy - 10.9 1017.5 0.0
 
Date/Time
EDT
Wind Sea
Height
m
Swell Vis
km
Cloud Weather Temp
°C
Press
MSL
hPa
Rain since
9am
mm
Dir  Spd
kts
Gust
kts
Height
m
Period
s
Dir
09/11:30pm S 13 20 - - - - - - - 11.1 1017.6 0.0
09/11:00pm SSW 16 23 - - - - - - - 11.2 1017.9 0.0
09/10:30pm SSW 17 23 - - - - - - - 11.5 1018.0 0.0
09/10:00pm SSW 17 23 - - - - - - - 11.4 1018.1 0.0
09/09:30pm SSW 16 24 - - - - - - - 11.5 1017.8 0.0
09/09:00pm SSW 19 25 - - - - - - - 11.6 1017.7 0.0
09/08:30pm SSW 18 23 - - - - - - - 11.9 1017.7 0.0
09/08:00pm SSW 17 25 - - - - - - - 12.2 1017.6 0.0
09/07:30pm SW 16 23 - - - - - - - 12.5 1017.5 0.0
09/07:00pm SW 18 25 - - - - - - - 12.8 1017.4 0.0
09/06:34pm SSW 16 26 - - - - - - - 12.8 1017.3 0.0
09/06:30pm SSW 17 23 - - - - - - - 13.0 1017.3 0.0
09/06:18pm SW 17 27 - - - - - - - 12.7 1017.3 0.0
09/06:00pm SW 19 28 - - - - - - - 12.9 1017.5 0.0
09/05:30pm SW 17 25 - - - - - - - 13.6 1017.5 0.0
09/05:00pm SW 19 24 - - - - - - - 13.5 1017.7 0.0
09/04:30pm SW 18 25 - - - - - - - 13.4 1017.9 0.0
09/04:00pm SW 18 23 - - - - - - - 13.5 1018.1 0.0
09/03:30pm SW 20 26 - - - - - - - 13.6 1018.3 0.0
09/03:00pm SW 19 27 - - - - - - - 13.4 1018.4 0.0
09/02:30pm SW 20 27 - - - - - Partly cloudy - 13.5 1018.4 0.0
09/02:00pm SW 21 26 - - - - - Partly cloudy - 13.5 1018.5 0.0
09/01:30pm SW 19 25 - - - - - Partly cloudy - 13.7 1018.5 0.0
09/01:00pm SW 17 23 - - - - - Partly cloudy - 13.2 1018.6 0.0
09/12:30pm SW 17 23 - - - - - Partly cloudy - 13.1 1018.7 0.0
09/12:00pm SSW 14 21 - - - - - - - 13.6 1018.9 0.0
09/11:30am SSW 14 18 - - - - - Partly cloudy - 13.0 1018.8 0.0
09/11:00am SW 16 21 - - - - - Partly cloudy - 11.8 1019.1 0.0
09/10:30am SW 17 21 - - - - - Cloudy - 12.4 1019.0 0.0
09/10:00am SW 16 21 - - - - - Cloudy - 12.3 1019.0 0.0
09/09:30am SW 11 15 - - - - - Partly cloudy - 12.4 1018.9 0.0
09/09:00am SSW 11 15 - - - - - - - 11.8 1018.8 0.0
09/08:30am SSW 7 10 - - - - - - - 11.6 1018.5 0.0
09/08:00am SSE 9 12 - - - - - - - 11.3 1018.1 0.0
09/07:30am SSE 9 13 - - - - - - - 10.5 1017.7 0.0
09/07:00am SSE 10 13 - - - - - Partly cloudy - 9.6 1017.5 0.0
09/06:30am SSE 11 15 - - - - - Partly cloudy - 8.8 1017.2 0.0
09/06:00am SSE 10 14 - - - - - - - 8.0 1016.8 0.0
09/05:30am SSE 11 15 - - - - - - - 8.2 1016.7 0.0
09/05:00am SSE 13 16 - - - - - - - 8.3 1016.7 0.0
09/04:30am S 10 14 - - - - - Partly cloudy - 8.9 1016.6 0.0
09/04:00am S 12 15 - - - - - Partly cloudy - 9.7 1016.7 0.0
09/03:30am S 14 19 - - - - - - - 9.7 1016.7 0.0
09/03:00am S 17 23 - - - - - Partly cloudy - 9.9 1016.6 0.0
09/02:30am SSW 21 27 - - - - - Partly cloudy - 10.1 1016.6 0.0
09/02:00am SSW 18 25 - - - - - Partly cloudy - 10.0 1016.6 0.0
09/01:30am SSW 18 24 - - - - - - - 10.0 1016.6 0.0
09/01:00am SSW 19 26 - - - - - Partly cloudy - 10.0 1016.5 0.0
09/12:30am S 16 21 - - - - - Partly cloudy - 9.4 1016.7 0.0
09/12:00am SSW 19 26 - - - - - Partly cloudy - 10.3 1016.6 0.0
 
Date/Time
EDT
Wind Sea
Height
m
Swell Vis
km
Cloud Weather Temp
°C
Press
MSL
hPa
Rain since
9am
mm
Dir  Spd
kts
Gust
kts
Height
m
Period
s
Dir
08/11:30pm SSW 19 25 - - - - - Partly cloudy - 10.1 1016.5 0.0
08/11:00pm SSW 22 28 - - - - - Partly cloudy - 10.0 1016.1 0.0
08/10:30pm SSW 21 29 - - - - - - - 9.8 1016.5 0.0
08/10:21pm SSW 19 29 - - - - - Partly cloudy - 9.8 1016.4 0.0
08/10:00pm S 19 26 - - - - - Partly cloudy - 9.8 1016.1 0.0
08/09:30pm SSW 21 28 - - - - - Partly cloudy - 10.2 1015.7 0.0
08/09:00pm SSW 22 29 - - - - - Mostly clear - 10.0 1015.6 0.0
08/08:30pm SSW 21 28 - - - - - Partly cloudy - 10.1 1015.4 0.0
08/08:00pm SSW 22 30 - - - - - Partly cloudy - 10.8 1015.2 0.0
08/07:30pm SSW 23 31 - - - - - Partly cloudy - 10.5 1014.7 0.0
08/07:00pm SSW 23 31 - - - - - Partly cloudy - 11.0 1014.4 0.0
08/06:48pm SSW 20 30 - - - - - Partly cloudy - 11.0 1014.2 0.0
08/06:30pm SSW 23 32 - - - - - Partly cloudy - 11.2 1014.1 0.0
08/06:01pm SSW 22 32 - - - - - Partly cloudy - 11.8 1013.8 0.0
08/06:00pm SSW 23 32 - - - - - Mostly clear - 11.7 1013.9 0.0
08/05:30pm SSW 23 33 - - - - - Partly cloudy - 11.6 1013.6 0.0
08/05:01pm SW 25 35 - - - - - Partly cloudy - 11.5 1013.6 0.0
08/05:00pm SW 26 35 - - - - - Partly cloudy - 11.2 1013.6 0.0
08/04:30pm SW 23 37 - - - - - - - 11.8 1013.4 0.0
08/04:05pm SSW 23 33 - - - - - - - 12.2 1013.2 0.0
08/04:00pm SSW 24 31 - - - - - Partly cloudy - 12.1 1013.2 0.0
08/03:40pm SSW 23 33 - - - - - Partly cloudy - 11.9 1013.1 0.0
08/03:30pm SW 24 31 - - - - - Partly cloudy - 11.7 1013.2 0.0
08/03:06pm SW 26 36 - - - - - Partly cloudy - 11.0 1012.8 0.0
08/03:00pm SW 27 35 - - - - - Cloudy - 11.5 1012.9 0.0
08/02:45pm SW 22 32 - - - - - Partly cloudy - 12.0 1012.7 0.0
08/02:30pm SSW 24 33 - - - - - Partly cloudy - 10.8 1012.7 0.0
08/02:15pm SW 26 36 - - - - - Partly cloudy - 12.0 1012.6 0.0
08/02:00pm SW 28 35 - - - - - Partly cloudy - 11.7 1012.6 0.0
08/01:30pm SW 25 35 - - - - - Partly cloudy - 12.0 1012.5 0.0
08/01:00pm SSW 27 38 - - - - - Partly cloudy - 11.3 1012.4 0.0
08/12:46pm SW 23 35 - - - - - Partly cloudy - 11.7 1012.3 0.0
08/12:30pm SSW 22 31 - - - - - Partly cloudy - 11.7 1012.2 0.0
08/12:04pm SSW 23 33 - - - - - Partly cloudy - 12.0 1011.9 0.0
08/12:00pm SW 25 34 - - - - - Partly cloudy - 11.7 1011.9 0.0
08/11:34am SSW 27 37 - - - - - Partly cloudy - 11.2 1011.7 0.0
08/11:30am SSW 27 36 - - - - - Partly cloudy - 11.7 1011.7 0.0
08/11:05am SSW 25 35 - - - - - Partly cloudy - 11.3 1011.6 0.0
08/11:00am SSW 24 32 - - - - - Partly cloudy - 11.8 1011.6 0.0
08/10:30am SSW 27 38 - - - - - Partly cloudy - 11.3 1011.3 0.0
08/10:06am SSW 26 36 - - - - - Partly cloudy - 11.6 1011.2 0.0
08/10:00am SSW 28 37 - - - - - Partly cloudy - 11.1 1011.1 0.0
08/09:30am SW 30 41 - - - - - Partly cloudy - 9.4 1010.9 0.0
08/09:00am SSW 27 37 - - - - - Cloudy - 10.8 1010.2 3.0
08/08:30am SSW 23 37 - - - - - Partly cloudy - 10.5 1009.8 3.0
08/08:00am SW 27 38 - - - - - Partly cloudy - 9.8 1009.4 3.0
08/07:31am SW 29 39 - - - - - Partly cloudy - 10.4 1008.7 3.0
08/07:30am SW 30 39 - - - - - Partly cloudy - 10.2 1008.6 3.0
08/07:00am SW 29 41 - - - - - Partly cloudy - 10.4 1008.3 3.0
08/06:30am SW 28 39 - - - - - Partly cloudy - 10.3 1007.9 3.0
08/06:00am SW 29 41 - - - - - Mostly cloudy - 10.1 1007.4 3.0
08/05:30am SW 29 42 - - - - - Partly cloudy - 10.1 1007.0 3.0
08/05:00am SW 34 44 - - - - - Partly cloudy - 9.5 1006.6 3.0
08/04:30am SW 32 42 - - - - - - - 9.6 1006.4 3.0
08/04:00am SW 30 44 - - - - - Partly cloudy - 9.9 1006.0 3.0
08/03:30am SW 32 43 - - - - - Partly cloudy - 10.3 1005.9 3.0
08/03:00am SW 33 43 - - - - - Mostly clear - 10.3 1005.9 3.0
08/02:30am SW 33 43 - - - - - Partly cloudy - 10.1 1005.9 3.0
08/02:00am SW 37 48 - - - - - Partly cloudy - 9.9 1006.0 3.0
08/01:32am SW 35 45 - - - - - Partly cloudy - 10.3 1005.8 3.0
08/01:30am SW 35 43 - - - - - Partly cloudy - 10.4 1005.8 3.0
08/01:16am SW 34 44 - - - - - - - 10.1 1005.9 3.0
08/01:00am SW 35 43 - - - - - Partly cloudy - 10.2 1005.8 3.0
08/12:30am SW 35 47 - - - - - Partly cloudy - 10.8 1005.6 3.0
08/12:00am SW 37 47 - - - - - Mostly cloudy - 10.5 1005.3 3.0
 
Date/Time
EDT
Wind Sea
Height
m
Swell Vis
km
Cloud Weather Temp
°C
Press
MSL
hPa
Rain since
9am
mm
Dir  Spd
kts
Gust
kts
Height
m
Period
s
Dir
07/11:30pm SW 36 47 - - - - - Partly cloudy - 10.5 1005.0 3.0
07/11:05pm SW 37 47 - - - - - Partly cloudy - 10.5 1004.8 3.0
07/11:00pm SW 38 47 - - - - - Partly cloudy - 10.6 1004.7 3.0
07/10:30pm SW 36 47 - - - - - Partly cloudy - 10.7 1004.5 3.0
07/10:00pm SW 34 45 - - - - - Partly cloudy - 9.7 1004.3 3.0
07/09:41pm SW 34 44 - - - - - Partly cloudy - 10.9 1003.6 3.0
07/09:30pm SW 34 43 - - - - - Partly cloudy - 11.0 1003.4 2.8
07/09:00pm SW 37 47 - - - - - Mostly cloudy Recent precip. 10.2 1003.0 2.8
07/08:30pm SW 39 51 - - - - - Partly cloudy - 8.2 1002.6 2.6
07/08:16pm SW 36 46 - - - - - Partly cloudy - 10.5 1002.4 2.4
07/08:00pm SW 36 45 - - - - - Partly cloudy - 10.4 1002.2 2.4

Other formats

Comma delimited format used in spreadsheet applications
http://www.bom.gov.au/fwo/IDV60701/IDV60701.95954.axf

JavaScript Object Notation format (JSON) in row-major order
http://www.bom.gov.au/fwo/IDV60701/IDV60701.95954.json

Data quality

Most of these data are generated automatically and are frequently updated. Quality checks on data are not normally performed. It is possible for incorrect values to appear. Refer to information at About Latest Weather Observations and please check the disclaimer before using these data.